Etusivu
METAR-TAF:

METAR-TAF

Lentoasemat :

Hemavan, Ruotsi

Leveyspiiri: 65-48-22N, Pituuspiiri: 015-04-58E, korkeus merenpinnasta: 458 m

Tämänhetkinen sää

Tämä raportti tehtiin 18 tuntia ja 29 minuuttia sitten, kello 14.50 UTC
Tuuli 3 kn idästä/kaakosta
Lämpötila -10°C
Kosteus 79%
Ilmanpaine 1024 hPa
Näkyvyys 10 km tai enemmän

METAR: ESUT 201450Z AUTO 12003KT 9999 OVC059/// M10/M13 Q1024

Aika: 10:19 (09:19 UTC)


TAF: puuttuu

Säähavainnot ja -ennusteet yli 4000 lentoasemalta (METAR- ja TAF-raportit).

Käytössä olevat sääasemat on merkitty karttaan keltaisilla ja punaisilla pisteillä.

Aseta hiiri pisteen päälle nähdäksesi sääaseman nimen.

Klikkaa sitten nähdäksesi säähavainnot ja -ennusteet.

Kartan vaihtaminen: klikkaa mustalla rastilla varustettuja vihreitä pisteitä, niin voit zoomata sisään; viivalla varustettua vihreää pistettä, niin voit zoomata ulos tai vihreitä nuolia, niin pääset viereisille kartoille.


METAR-TAF: